Latest Weather Observations for Camooweal

IDQ60801

Issued at 10:02 pm EST Sunday 29 March 2015 (issued every 30 minutes, with the page automatically refreshed every 10 minutes)

About weather observations | Map of weather stations | Latest weather observations for QLD | Other Formats
Station Details ID: 037010 Name: CAMOOWEAL TOWNSHIP Lat: -19.92 Lon: 138.12 Height: 231.2 m
Data from the previous 72 hours. | See also: Recent months at Camooweal
Date/Time
EST
Temp
°C
App
Temp
°C
Dew
Point
Rel
Hum
%
Delta-T
°C
Wind Press
QNH
hPa
Press
MSL
hPa
Rain
since 9 am
mm
Dir
 
Spd
km/h
Gust
km/h
Spd
kts
Gust
kts
29/10:00pm 31.2 31.0 17.5 44 8.8 NE 15 24 8 13 1016.1 1014.5 0.0
29/09:30pm 31.9 30.8 17.8 43 9.1 NE 20 32 11 17 1015.8 1014.2 0.0
29/09:00pm 30.9 32.3 18.6 48 8.0 N 9 17 5 9 1015.4 1013.8 0.0
29/08:30pm 30.6 29.5 18.7 49 7.8 N 22 32 12 17 1015.0 1013.5 0.0
29/08:00pm 32.3 32.9 18.5 44 9.0 NNE 13 20 7 11 1014.6 1013.1 0.0
29/07:30pm 34.2 32.4 16.1 34 11.5 NE 20 35 11 19 1014.3 1012.8 0.0
29/07:00pm 35.6 35.1 13.7 27 13.5 ESE 9 13 5 7 1013.8 1012.3 0.0
29/06:30pm 35.9 35.5 14.0 27 13.6 ESE 9 13 5 7 1013.2 1011.6 0.0
29/06:00pm 36.9 36.2 14.2 25 14.2 ESE 11 17 6 9 1012.9 1011.3 0.0
29/05:30pm 36.8 35.4 13.5 24 14.4 E 13 17 7 9 1012.8 1011.2 0.0
29/05:00pm 36.9 34.6 14.2 25 14.2 E 19 26 10 14 1012.7 1011.1 0.0
29/04:30pm 37.0 34.8 14.3 26 14.2 ESE 19 28 10 15 1012.4 1010.8 0.0
29/04:00pm 37.7 36.6 14.3 25 14.7 ESE 13 20 7 11 1012.5 1010.9 0.0
29/03:30pm 37.3 36.3 13.3 23 14.8 SE 11 17 6 9 1012.6 1011.0 0.0
29/03:00pm 38.4 37.8 13.6 23 15.5 S 9 24 5 13 1012.7 1011.1 0.0
29/02:30pm 37.8 36.5 13.7 23 15.0 E 13 20 7 11 1013.1 1011.5 0.0
29/02:00pm 37.1 36.6 13.8 25 14.5 SE 9 17 5 9 1013.5 1012.0 0.0
29/01:30pm 38.4 37.3 14.2 23 15.2 E 13 20 7 11 1013.8 1012.3 0.0
29/01:00pm 36.3 35.0 13.7 25 14.0 SE 13 20 7 11 1014.3 1012.8 0.0
29/12:30pm 38.2 37.2 14.7 24 14.8 E 13 20 7 11 1015.0 1013.5 0.0
29/12:00pm 37.3 37.1 14.6 26 14.3 NE 9 26 5 14 1015.7 1014.1 0.0
29/11:30am 36.5 34.9 12.7 24 14.5 ENE 13 22 7 12 1016.2 1014.6 0.0
29/11:00am 35.3 32.6 10.4 22 14.6 ENE 15 26 8 14 1016.5 1014.9 0.0
29/10:30am 33.5 30.6 8.2 21 14.3 ESE 13 19 7 10 1016.6 1015.0 0.0
29/10:00am 31.7 28.3 6.0 20 13.8 SE 13 20 7 11 1016.7 1015.1 0.0
29/09:30am 30.4 25.5 4.2 19 13.6 SSE 19 24 10 13 1016.8 1015.2 0.0
29/09:00am 29.2 24.3 3.9 20 13.0 SSE 19 24 10 13 1016.7 1015.1 0.0
29/08:30am 27.6 22.5 4.0 22 12.0 S 20 26 11 14 1016.1 1014.5 0.0
29/08:00am 26.7 22.0 5.1 25 11.1 S 19 24 10 13 1015.9 1014.3 0.0
29/07:30am 26.0 21.9 4.5 25 10.9 SSE 15 20 8 11 1015.4 1013.8 0.0
29/07:00am 25.7 20.8 4.2 25 10.9 SSE 19 26 10 14 1015.0 1013.5 0.0
29/06:30am 26.0 21.3 5.0 26 10.8 SSE 19 26 10 14 1014.5 1013.0 0.0
29/06:00am 26.2 22.0 5.7 27 10.7 SSE 17 22 9 12 1014.2 1012.7 0.0
29/05:30am 25.9 22.6 6.5 29 10.2 S 13 17 7 9 1014.1 1012.6 0.0
29/05:00am 26.1 23.0 7.2 30 10.1 S 13 17 7 9 1013.8 1012.3 0.0
29/04:30am 25.0 22.2 8.5 35 9.0 S 13 13 7 7 1013.7 1012.2 0.0
29/04:00am 25.2 23.1 8.2 34 9.2 S 9 11 5 6 1013.7 1012.2 0.0
29/03:30am 25.4 22.9 8.4 34 9.2 SSE 11 11 6 6 1013.8 1012.3 0.0
29/03:00am 25.7 23.5 7.8 32 9.6 SE 9 11 5 6 1014.2 1012.7 0.0
29/02:30am 26.2 24.5 7.7 31 10.0 SSE 6 7 3 4 1014.2 1012.7 0.0
29/02:00am 25.9 23.4 8.4 33 9.5 S 11 13 6 7 1014.3 1012.8 0.0
29/01:30am 28.1 25.1 7.9 28 11.0 S 13 17 7 9 1014.6 1013.1 0.0
29/01:00am 29.0 26.1 8.1 27 11.5 SSE 13 17 7 9 1014.9 1013.4 0.0
29/12:30am 29.5 27.0 8.0 26 11.8 SSE 11 17 6 9 1015.2 1013.6 0.0
29/12:00am 29.8 27.7 8.2 26 12.0 ESE 9 13 5 7 1015.3 1013.7 0.0
 
Date/Time
EST
Temp
°C
App
Temp
°C
Dew
Point
Rel
Hum
%
Delta-T
°C
Wind Press
QNH
hPa
Press
MSL
hPa
Rain
since 9 am
mm
Dir
 
Spd
km/h
Gust
km/h
Spd
kts
Gust
kts
28/11:30pm 30.6 28.1 8.3 25 12.4 NE 11 15 6 8 1015.2 1013.6 0.0
28/11:00pm 30.4 27.4 7.6 24 12.5 S 13 17 7 9 1014.7 1013.2 0.0
28/10:30pm 30.4 27.1 8.2 25 12.3 S 15 19 8 10 1014.6 1013.1 0.0
28/10:00pm 31.4 27.1 7.1 22 13.3 S 19 24 10 13 1014.5 1013.0 0.0
28/09:30pm 32.2 27.9 7.1 21 13.8 S 19 26 10 14 1014.3 1012.8 0.0
28/09:00pm 32.4 28.2 7.3 21 13.9 S 19 26 10 14 1014.1 1012.6 0.0
28/08:30pm 33.0 28.7 7.8 21 14.1 SSW 20 26 11 14 1013.8 1012.3 0.0
28/08:00pm 34.1 29.8 8.0 20 14.7 S 20 28 11 15 1013.3 1011.7 0.0
28/07:30pm 35.0 31.1 8.7 20 15.1 S 19 24 10 13 1012.7 1011.1 0.0
28/07:00pm 36.0 34.6 10.9 22 14.9 SSE 9 13 5 7 1012.4 1010.8 0.0
28/06:30pm 36.8 33.5 10.9 21 15.4 SE 19 24 10 13 1011.8 1010.2 0.0
28/06:00pm 37.5 36.0 10.7 20 16.0 SE 9 17 5 9 1011.5 1009.9 0.0
28/05:30pm 38.0 35.3 10.4 19 16.4 SSE 15 24 8 13 1011.3 1009.7 0.0
28/05:00pm 37.9 36.4 11.8 21 15.8 S 11 20 6 11 1011.2 1009.6 0.0
28/04:30pm 37.3 35.4 10.6 20 15.9 ESE 11 19 6 10 1011.3 1009.7 0.0
28/04:00pm 38.0 35.5 11.1 20 16.2 SSE 15 24 8 13 1011.6 1010.0 0.0
28/03:30pm 37.8 37.0 11.0 20 16.1 SSE 6 15 3 8 1011.8 1010.2 0.0
28/03:00pm 38.6 35.3 11.6 20 16.4 SSE 20 37 11 20 1012.0 1010.4 0.0
28/02:30pm 37.4 35.2 10.7 20 15.9 S 13 26 7 14 1012.5 1010.9 0.0
28/02:00pm 37.3 34.8 9.8 19 16.2 S 13 20 7 11 1012.9 1011.3 0.0
28/01:30pm 37.4 35.0 9.9 19 16.2 SSE 13 20 7 11 1013.5 1012.0 0.0
28/01:00pm 36.6 33.8 10.0 20 15.6 SE 15 24 8 13 1014.2 1012.7 0.0
28/12:30pm 35.9 32.9 9.4 20 15.4 E 15 24 8 13 1015.0 1013.5 0.0
28/12:00pm 35.3 31.8 7.4 18 15.7 ESE 15 26 8 14 1015.6 1014.0 0.0
28/11:30am 34.0 29.8 5.5 17 15.4 E 17 28 9 15 1016.0 1014.4 0.0
28/11:00am 32.5 27.6 4.3 17 14.8 SE 19 30 10 16 1016.4 1014.8 0.0
28/10:30am 30.5 25.2 1.9 16 14.3 SE 19 22 10 12 1016.7 1015.1 0.0
28/10:00am 29.0 23.5 0.7 16 13.7 SE 19 28 10 15 1016.7 1015.1 0.0
28/09:30am 27.3 22.1 0.1 17 12.9 SSE 17 20 9 11 1017.0 1015.4 0.0
28/09:00am 25.5 19.6 -0.5 18 12.0 SSE 20 26 11 14 1016.9 1015.3 0.0
28/08:30am 23.9 18.1 -0.4 20 11.1 SSE 20 26 11 14 1016.6 1015.0 0.0
28/08:00am 22.8 17.6 0.0 22 10.4 SSE 17 22 9 12 1016.5 1014.9 0.0
28/07:30am 21.5 17.0 -0.5 23 9.9 S 13 17 7 9 1016.3 1014.7 0.0
28/07:00am 20.8 16.3 -0.5 24 9.5 S 13 19 7 10 1016.0 1014.4 0.0
28/06:30am 21.4 16.5 -0.6 23 9.8 S 15 20 8 11 1015.7 1014.1 0.0
28/06:00am 22.0 16.4 -0.1 23 10.0 S 19 26 10 14 1015.7 1014.1 0.0
28/05:30am 22.2 17.3 -0.5 22 10.2 SSE 15 20 8 11 1015.5 1013.9 0.0
28/05:00am 22.7 17.1 -0.1 22 10.4 S 19 26 10 14 1015.3 1013.7 0.0
28/04:30am 22.9 17.7 0.1 22 10.5 SSE 17 22 9 12 1015.3 1013.7 0.0
28/04:00am 23.3 17.7 -0.2 21 10.7 SSE 19 24 10 13 1015.4 1013.8 0.0
28/03:30am 23.4 18.3 0.5 22 10.6 S 17 22 9 12 1015.5 1013.9 0.0
28/03:00am 24.0 18.7 -0.3 20 11.1 S 17 24 9 13 1015.5 1013.9 0.0
28/02:30am 24.6 18.9 -0.5 19 11.5 SSE 19 26 10 14 1015.8 1014.2 0.0
28/02:00am 25.1 19.5 -0.1 19 11.7 SSE 19 26 10 14 1016.0 1014.4 0.0
28/01:30am 25.7 19.9 -0.4 18 12.1 SSE 20 28 11 15 1016.1 1014.5 0.0
28/01:00am 26.0 20.2 -0.1 18 12.2 S 20 28 11 15 1016.3 1014.7 0.0
28/12:30am 26.1 20.5 0.0 18 12.2 S 19 26 10 14 1016.6 1015.0 0.0
28/12:00am 26.8 21.0 -0.3 17 12.7 S 20 26 11 14 1016.7 1015.1 0.0
 
Date/Time
EST
Temp
°C
App
Temp
°C
Dew
Point
Rel
Hum
%
Delta-T
°C
Wind Press
QNH
hPa
Press
MSL
hPa
Rain
since 9 am
mm
Dir
 
Spd
km/h
Gust
km/h
Spd
kts
Gust
kts
27/11:30pm 27.4 21.2 -0.6 16 13.1 SSE 22 30 12 16 1016.6 1015.0 0.0
27/11:00pm 27.9 21.7 -0.2 16 13.3 S 22 32 12 17 1016.7 1015.1 0.0
27/10:30pm 28.0 22.1 -1.0 15 13.6 S 20 26 11 14 1016.8 1015.2 0.0
27/10:00pm 28.6 22.4 -0.5 15 13.8 S 22 32 12 17 1016.8 1015.2 0.0
27/09:30pm 28.9 22.7 -0.3 15 13.9 S 22 32 12 17 1016.6 1015.0 0.0
27/09:00pm 29.6 23.3 -0.7 14 14.4 S 22 32 12 17 1016.4 1014.8 0.0
27/08:30pm 29.9 24.2 0.5 15 14.3 S 20 28 11 15 1015.9 1014.3 0.0
27/08:00pm 30.8 25.0 0.2 14 14.9 S 20 28 11 15 1015.5 1013.9 0.0
27/07:30pm 32.0 26.0 1.2 14 15.4 S 22 33 12 18 1015.2 1013.6 0.0
27/07:00pm 32.9 26.9 0.9 13 16.0 S 22 30 12 16 1014.7 1013.2 0.0
27/06:30pm 33.9 27.6 1.6 13 16.4 SSE 24 30 13 16 1014.5 1013.0 0.0
27/06:00pm 34.8 29.4 2.3 13 16.8 SSE 20 28 11 15 1014.1 1012.6 0.0
27/05:30pm 35.0 29.4 1.4 12 17.1 SSE 20 32 11 17 1014.0 1012.5 0.0
27/05:00pm 35.4 29.9 1.7 12 17.3 SSE 20 32 11 17 1014.0 1012.5 0.0
27/04:30pm 35.4 30.3 2.8 13 17.0 SSE 19 33 10 18 1014.0 1012.5 0.0
27/04:00pm 35.6 29.7 1.8 12 17.4 SSE 22 30 12 16 1014.1 1012.6 0.0
27/03:30pm 35.8 29.9 2.0 12 17.5 SSE 22 35 12 19 1014.3 1012.8 0.0
27/03:00pm 35.7 30.8 1.9 12 17.4 SSE 17 30 9 16 1014.7 1013.2 0.0
27/02:30pm 35.1 30.1 1.5 12 17.2 SSE 17 28 9 15 1015.3 1013.7 0.0
27/02:00pm 34.8 29.4 1.2 12 17.1 SE 19 26 10 14 1015.9 1014.3 0.0
27/01:30pm 34.3 28.6 0.8 12 16.9 SE 20 30 11 16 1016.3 1014.7 0.0
27/01:00pm 33.8 28.7 0.5 12 16.6 SSE 17 28 9 15 1017.0 1015.4 0.0
27/12:30pm 32.7 27.6 0.7 13 15.9 SE 17 28 9 15 1017.6 1016.1 0.0
27/12:00pm 31.9 25.8 0.1 13 15.5 SSE 22 32 12 17 1018.1 1016.6 0.0
27/11:30am 31.9 25.5 1.1 14 15.3 SSE 24 35 13 19 1018.5 1017.0 0.0
27/11:00am 29.7 23.1 -0.6 14 14.4 SE 24 33 13 18 1018.8 1017.3 0.0
27/10:30am 28.8 21.8 -0.4 15 13.9 SE 26 35 14 19 1019.0 1017.5 0.0
27/10:00am 28.1 20.8 -0.1 16 13.4 SE 28 37 15 20 1019.4 1017.9 0.0
27/09:30am 26.8 19.6 0.5 18 12.5 SSE 28 37 15 20 1019.6 1018.1 0.0
27/09:00am 25.7 18.5 0.4 19 11.9 SSE 28 37 15 20 1019.6 1018.1 0.0
27/08:30am 24.5 17.7 0.8 21 11.2 SSE 26 37 14 20 1019.5 1018.0 0.0
27/08:00am 23.2 16.7 0.3 22 10.5 SSE 24 35 13 19 1019.0 1017.5 0.0
27/07:30am 22.4 15.5 0.3 23 10.1 SSE 26 35 14 19 1018.7 1017.2 0.0
27/07:00am 22.2 16.1 0.7 24 9.9 S 22 33 12 18 1018.3 1016.8 0.0
27/06:30am 22.5 16.1 0.9 24 10.0 S 24 33 13 18 1018.2 1016.7 0.0
27/06:00am 23.0 15.8 0.8 23 10.3 S 28 39 15 21 1018.0 1016.5 0.0
27/05:30am 23.5 16.8 1.2 23 10.5 S 26 35 14 19 1017.9 1016.4 0.0
27/05:00am 23.9 17.6 1.5 23 10.6 S 24 33 13 18 1017.8 1016.3 0.0
27/04:30am 24.4 18.1 1.3 22 11.0 S 24 32 13 17 1017.7 1016.2 0.0
27/04:00am 25.2 18.9 1.3 21 11.4 S 24 32 13 17 1017.6 1016.1 0.0
27/03:30am 26.2 19.9 1.5 20 11.9 S 24 33 13 18 1017.5 1016.0 0.0
27/03:00am 26.7 20.5 1.9 20 12.1 S 24 37 13 20 1017.7 1016.2 0.0
27/02:30am 27.1 21.5 1.5 19 12.4 S 20 30 11 16 1017.9 1016.4 0.0
27/02:00am 27.6 22.0 1.2 18 12.8 S 20 28 11 15 1018.2 1016.7 0.0
27/01:30am 28.0 22.1 1.5 18 12.9 S 22 32 12 17 1018.3 1016.8 0.0
27/01:00am 28.7 23.1 1.3 17 13.4 SSE 20 28 11 15 1018.4 1016.9 0.0
27/12:30am 28.9 23.2 0.6 16 13.7 SSE 20 32 11 17 1018.7 1017.2 0.0
27/12:00am 29.0 23.3 0.7 16 13.7 SSE 20 26 11 14 1018.9 1017.4 0.0
 
Date/Time
EST
Temp
°C
App
Temp
°C
Dew
Point
Rel
Hum
%
Delta-T
°C
Wind Press
QNH
hPa
Press
MSL
hPa
Rain
since 9 am
mm
Dir
 
Spd
km/h
Gust
km/h
Spd
kts
Gust
kts
26/11:30pm 29.1 23.8 1.6 17 13.6 SSE 19 26 10 14 1019.0 1017.5 0.0
26/11:00pm 29.3 24.0 1.7 17 13.6 S 19 26 10 14 1018.9 1017.4 0.0
26/10:30pm 29.9 24.3 1.4 16 14.1 SSE 20 30 11 16 1018.8 1017.3 0.0

Other Formats:

Comma delimited format used in spreadsheet applications
http://www.bom.gov.au/fwo/IDQ60801/IDQ60801.94255.axf

JavaScript Object Notation format (JSON) in row-major order
http://www.bom.gov.au/fwo/IDQ60801/IDQ60801.94255.json